sensor_id;sensor_type;location;lat;lon;timestamp;pressure;altitude;pressure_sealevel;temperature;humidity
84767;BME280;74995;49.824;10.994;2023-12-28T00:00:39;98912.41;;;14.49;47.67
84767;BME280;74995;49.824;10.994;2023-12-28T00:03:05;98907.41;;;14.46;47.70
84767;BME280;74995;49.824;10.994;2023-12-28T00:05:30;98904.91;;;14.44;47.79
84767;BME280;74995;49.824;10.994;2023-12-28T00:07:55;98897.84;;;14.45;47.72
84767;BME280;74995;49.824;10.994;2023-12-28T00:10:26;98888.66;;;14.49;47.54
84767;BME280;74995;49.824;10.994;2023-12-28T00:12:53;98880.91;;;14.47;47.59
84767;BME280;74995;49.824;10.994;2023-12-28T00:15:18;98876.59;;;14.46;47.56
84767;BME280;74995;49.824;10.994;2023-12-28T00:17:43;98871.31;;;14.46;47.38
84767;BME280;74995;49.824;10.994;2023-12-28T00:20:09;98871.31;;;14.46;47.57
84767;BME280;74995;49.824;10.994;2023-12-28T00:22:34;98871.44;;;14.45;47.35
84767;BME280;74995;49.824;10.994;2023-12-28T00:25:03;98878.94;;;14.40;47.39
84767;BME280;74995;49.824;10.994;2023-12-28T00:27:28;98885.19;;;14.39;47.47
84767;BME280;74995;49.824;10.994;2023-12-28T00:29:53;98876.44;;;14.38;47.46
84767;BME280;74995;49.824;10.994;2023-12-28T00:32:18;98872.56;;;14.42;47.35
84767;BME280;74995;49.824;10.994;2023-12-28T00:34:43;98876.19;;;14.41;47.29
84767;BME280;74995;49.824;10.994;2023-12-28T00:37:09;98879.09;;;14.38;47.43
84767;BME280;74995;49.824;10.994;2023-12-28T00:39:34;98885.47;;;14.36;47.36
84767;BME280;74995;49.824;10.994;2023-12-28T00:42:00;98892.97;;;14.40;47.14
84767;BME280;74995;49.824;10.994;2023-12-28T00:44:25;98883.53;;;14.38;47.14
84767;BME280;74995;49.824;10.994;2023-12-28T00:46:51;98876.72;;;14.35;47.29
84767;BME280;74995;49.824;10.994;2023-12-28T00:49:16;98881.72;;;14.38;47.29
84767;BME280;74995;49.824;10.994;2023-12-28T00:51:41;98881.88;;;14.37;47.29
84767;BME280;74995;49.824;10.994;2023-12-28T00:54:06;98886.59;;;14.33;47.41
84767;BME280;74995;49.824;10.994;2023-12-28T00:56:32;98894.63;;;14.31;47.19
84767;BME280;74995;49.824;10.994;2023-12-28T00:58:57;98889.91;;;14.35;47.31
84767;BME280;74995;49.824;10.994;2023-12-28T01:01:22;98885.75;;;14.32;47.13
84767;BME280;74995;49.824;10.994;2023-12-28T01:03:47;98892.13;;;14.30;47.27
84767;BME280;74995;49.824;10.994;2023-12-28T01:06:13;98902.00;;;14.28;47.12
84767;BME280;74995;49.824;10.994;2023-12-28T01:08:38;98902.56;;;14.31;47.08
84767;BME280;74995;49.824;10.994;2023-12-28T01:11:03;98901.84;;;14.29;47.11
84767;BME280;74995;49.824;10.994;2023-12-28T01:13:29;98900.47;;;14.25;47.31
84767;BME280;74995;49.824;10.994;2023-12-28T01:15:55;98890.88;;;14.24;47.42
84767;BME280;74995;49.824;10.994;2023-12-28T01:18:20;98906.84;;;14.23;47.34
84767;BME280;74995;49.824;10.994;2023-12-28T01:20:46;98917.41;;;14.23;47.41
84767;BME280;74995;49.824;10.994;2023-12-28T01:23:11;98920.59;;;14.26;47.08
84767;BME280;74995;49.824;10.994;2023-12-28T01:25:37;98921.69;;;14.24;47.26
84767;BME280;74995;49.824;10.994;2023-12-28T01:28:02;98923.63;;;14.22;47.20
84767;BME280;74995;49.824;10.994;2023-12-28T01:30:27;98928.06;;;14.21;47.76
84767;BME280;74995;49.824;10.994;2023-12-28T01:32:53;98931.00;;;14.18;47.31
84767;BME280;74995;49.824;10.994;2023-12-28T01:35:18;98933.09;;;14.15;47.35
84767;BME280;74995;49.824;10.994;2023-12-28T01:37:44;98928.78;;;14.23;47.36
84767;BME280;74995;49.824;10.994;2023-12-28T01:40:09;98928.78;;;14.23;47.43
84767;BME280;74995;49.824;10.994;2023-12-28T01:42:34;98913.78;;;14.24;47.05
84767;BME280;74995;49.824;10.994;2023-12-28T01:45:00;98923.50;;;14.23;47.26
84767;BME280;74995;49.824;10.994;2023-12-28T01:47:26;98906.41;;;14.18;47.21
84767;BME280;74995;49.824;10.994;2023-12-28T01:49:51;98910.06;;;14.17;47.17
84767;BME280;74995;49.824;10.994;2023-12-28T01:52:17;98937.78;;;14.21;47.18
84767;BME280;74995;49.824;10.994;2023-12-28T01:54:42;98939.88;;;14.17;47.08
84767;BME280;74995;49.824;10.994;2023-12-28T01:57:08;98946.16;;;14.16;47.14
84767;BME280;74995;49.824;10.994;2023-12-28T01:59:34;98952.91;;;14.19;47.22
84767;BME280;74995;49.824;10.994;2023-12-28T02:01:59;98962.09;;;14.15;46.93
84767;BME280;74995;49.824;10.994;2023-12-28T02:04:24;98957.09;;;14.12;47.04
84767;BME280;74995;49.824;10.994;2023-12-28T02:06:58;98948.75;;;14.07;47.22
84767;BME280;74995;49.824;10.994;2023-12-28T02:09:24;98945.28;;;14.06;47.49
84767;BME280;74995;49.824;10.994;2023-12-28T02:11:50;98937.38;;;14.06;47.48
84767;BME280;74995;49.824;10.994;2023-12-28T02:14:15;98930.03;;;14.10;47.25
84767;BME280;74995;49.824;10.994;2023-12-28T02:16:54;98925.84;;;14.07;47.30
84767;BME280;74995;49.824;10.994;2023-12-28T02:22:02;98915.59;;;14.04;47.40
84767;BME280;74995;49.824;10.994;2023-12-28T02:24:27;98913.34;;;13.99;47.10
84767;BME280;74995;49.824;10.994;2023-12-28T02:26:53;98916.16;;;14.08;47.29
84767;BME280;74995;49.824;10.994;2023-12-28T02:29:18;98917.13;;;14.07;47.44
84767;BME280;74995;49.824;10.994;2023-12-28T02:31:46;98921.00;;;14.03;47.22
84767;BME280;74995;49.824;10.994;2023-12-28T02:34:20;98924.91;;;14.08;47.04
84767;BME280;74995;49.824;10.994;2023-12-28T02:36:51;98935.44;;;14.08;46.99
84767;BME280;74995;49.824;10.994;2023-12-28T02:39:18;98938.34;;;14.05;47.05
84767;BME280;74995;49.824;10.994;2023-12-28T02:41:44;98938.47;;;14.04;47.26
84767;BME280;74995;49.824;10.994;2023-12-28T02:44:10;98937.91;;;14.00;47.16
84767;BME280;74995;49.824;10.994;2023-12-28T02:46:35;98942.34;;;13.99;47.28
84767;BME280;74995;49.824;10.994;2023-12-28T02:49:00;98945.97;;;13.98;47.03
84767;BME280;74995;49.824;10.994;2023-12-28T02:51:26;98945.97;;;13.98;47.19
84767;BME280;74995;49.824;10.994;2023-12-28T02:53:51;98950.84;;;14.03;46.95
84767;BME280;74995;49.824;10.994;2023-12-28T02:56:16;98950.97;;;14.02;46.90
84767;BME280;74995;49.824;10.994;2023-12-28T02:58:41;98954.16;;;14.05;46.91
84767;BME280;74995;49.824;10.994;2023-12-28T03:01:07;98948.06;;;14.05;46.87
84767;BME280;74995;49.824;10.994;2023-12-28T03:03:32;98936.41;;;14.07;46.83
84767;BME280;74995;49.824;10.994;2023-12-28T03:05:57;98940.16;;;14.05;47.13
84767;BME280;74995;49.824;10.994;2023-12-28T03:08:23;98939.59;;;14.01;47.16
84767;BME280;74995;49.824;10.994;2023-12-28T03:10:48;98948.47;;;14.00;47.11
84767;BME280;74995;49.824;10.994;2023-12-28T03:13:13;98949.03;;;14.04;46.85
84767;BME280;74995;49.824;10.994;2023-12-28T03:15:38;98941.38;;;14.00;46.89
84767;BME280;74995;49.824;10.994;2023-12-28T03:18:04;98936.13;;;14.00;47.16
84767;BME280;74995;49.824;10.994;2023-12-28T03:20:29;98929.88;;;14.02;46.82
84767;BME280;74995;49.824;10.994;2023-12-28T03:22:54;98935.41;;;13.98;46.74
84767;BME280;74995;49.824;10.994;2023-12-28T03:25:19;98929.31;;;13.98;46.87
84767;BME280;74995;49.824;10.994;2023-12-28T03:27:44;98922.94;;;14.00;46.84
84767;BME280;74995;49.824;10.994;2023-12-28T03:30:10;98918.75;;;13.98;46.74
84767;BME280;74995;49.824;10.994;2023-12-28T03:32:36;98917.94;;;13.97;46.84
84767;BME280;74995;49.824;10.994;2023-12-28T03:35:01;98911.69;;;13.98;46.93
84767;BME280;74995;49.824;10.994;2023-12-28T03:37:27;98929.44;;;13.96;46.65
84767;BME280;74995;49.824;10.994;2023-12-28T03:39:52;98922.81;;;13.92;46.93
84767;BME280;74995;49.824;10.994;2023-12-28T03:42:17;98925.56;;;13.91;46.91
84767;BME280;74995;49.824;10.994;2023-12-28T03:44:42;98924.75;;;13.90;46.88
84767;BME280;74995;49.824;10.994;2023-12-28T03:47:08;98930.41;;;13.95;46.72
84767;BME280;74995;49.824;10.994;2023-12-28T03:49:33;98927.09;;;13.93;46.85
84767;BME280;74995;49.824;10.994;2023-12-28T03:51:58;98931.53;;;13.93;46.63
84767;BME280;74995;49.824;10.994;2023-12-28T03:54:23;98947.06;;;13.96;46.75
84767;BME280;74995;49.824;10.994;2023-12-28T03:56:49;98936.94;;;13.91;46.71
84767;BME280;74995;49.824;10.994;2023-12-28T03:59:14;98933.47;;;13.91;46.58
84767;BME280;74995;49.824;10.994;2023-12-28T04:01:43;98930.97;;;13.89;46.90
84767;BME280;74995;49.824;10.994;2023-12-28T04:04:09;98930.16;;;13.89;47.17
84767;BME280;74995;49.824;10.994;2023-12-28T04:06:34;98931.25;;;13.86;46.93
84767;BME280;74995;49.824;10.994;2023-12-28T04:08:59;98932.09;;;13.87;47.11
84767;BME280;74995;49.824;10.994;2023-12-28T04:11:24;98944.28;;;13.88;47.04
84767;BME280;74995;49.824;10.994;2023-12-28T04:13:50;98929.31;;;13.88;47.18
84767;BME280;74995;49.824;10.994;2023-12-28T04:16:16;98935.41;;;13.89;47.33
84767;BME280;74995;49.824;10.994;2023-12-28T04:18:42;98930.97;;;13.89;47.27
84767;BME280;74995;49.824;10.994;2023-12-28T04:21:11;98931.81;;;13.90;47.19
84767;BME280;74995;49.824;10.994;2023-12-28T04:23:40;98927.38;;;13.90;47.12
84767;BME280;74995;49.824;10.994;2023-12-28T04:26:06;98921.13;;;13.91;47.26
84767;BME280;74995;49.824;10.994;2023-12-28T04:28:32;98920.31;;;13.91;46.65
84767;BME280;74995;49.824;10.994;2023-12-28T04:31:02;98921.97;;;13.92;46.93
84767;BME280;74995;49.824;10.994;2023-12-28T04:33:27;98925.44;;;13.92;47.01
84767;BME280;74995;49.824;10.994;2023-12-28T04:35:53;98932.38;;;13.93;46.99
84767;BME280;74995;49.824;10.994;2023-12-28T04:38:18;98933.03;;;13.95;46.88
84767;BME280;74995;49.824;10.994;2023-12-28T04:40:43;98921.97;;;14.02;46.84
84767;BME280;74995;49.824;10.994;2023-12-28T04:43:09;98931.53;;;14.03;46.51
84767;BME280;74995;49.824;10.994;2023-12-28T04:45:34;98935.16;;;14.02;46.71
84767;BME280;74995;49.824;10.994;2023-12-28T04:47:59;98938.75;;;14.00;46.66
84767;BME280;74995;49.824;10.994;2023-12-28T04:50:24;98940.41;;;14.02;46.85
84767;BME280;74995;49.824;10.994;2023-12-28T04:52:50;98933.78;;;14.07;46.78
84767;BME280;74995;49.824;10.994;2023-12-28T04:55:15;98941.94;;;14.04;46.56
84767;BME280;74995;49.824;10.994;2023-12-28T04:57:41;98941.94;;;14.04;46.61
84767;BME280;74995;49.824;10.994;2023-12-28T05:00:06;98936.28;;;14.09;46.58
84767;BME280;74995;49.824;10.994;2023-12-28T05:02:32;98943.47;;;14.07;46.31
84767;BME280;74995;49.824;10.994;2023-12-28T05:04:57;98947.09;;;14.06;46.77
84767;BME280;74995;49.824;10.994;2023-12-28T05:07:22;98953.34;;;14.05;46.67
84767;BME280;74995;49.824;10.994;2023-12-28T05:09:47;98956.94;;;14.04;46.79
84767;BME280;74995;49.824;10.994;2023-12-28T05:12:13;98962.22;;;14.04;46.82
84767;BME280;74995;49.824;10.994;2023-12-28T05:14:38;98955.00;;;14.06;46.84
84767;BME280;74995;49.824;10.994;2023-12-28T05:17:03;98952.78;;;14.11;46.59
84767;BME280;74995;49.824;10.994;2023-12-28T05:19:29;98945.72;;;14.11;46.82
84767;BME280;74995;49.824;10.994;2023-12-28T05:21:54;98944.19;;;14.09;46.29
84767;BME280;74995;49.824;10.994;2023-12-28T05:24:19;98952.94;;;14.09;46.48
84767;BME280;74995;49.824;10.994;2023-12-28T05:26:44;98961.81;;;14.08;46.79
84767;BME280;74995;49.824;10.994;2023-12-28T05:29:10;98960.84;;;14.09;46.94
84767;BME280;74995;49.824;10.994;2023-12-28T05:31:35;98971.53;;;14.08;46.56
84767;BME280;74995;49.824;10.994;2023-12-28T05:34:00;98982.22;;;14.16;46.68
84767;BME280;74995;49.824;10.994;2023-12-28T05:36:25;98974.31;;;14.16;46.87
84767;BME280;74995;49.824;10.994;2023-12-28T05:38:50;98979.59;;;14.16;46.92
84767;BME280;74995;49.824;10.994;2023-12-28T05:41:16;98975.00;;;14.18;46.53
84767;BME280;74995;49.824;10.994;2023-12-28T05:43:41;98984.44;;;14.20;46.59
84767;BME280;74995;49.824;10.994;2023-12-28T05:46:07;98986.66;;;14.25;46.65
84767;BME280;74995;49.824;10.994;2023-12-28T05:48:32;98982.63;;;14.21;46.38
84767;BME280;74995;49.824;10.994;2023-12-28T05:50:57;98987.34;;;14.17;46.46
84767;BME280;74995;49.824;10.994;2023-12-28T05:53:26;98983.91;;;14.17;46.61
84767;BME280;74995;49.824;10.994;2023-12-28T05:55:52;98989.31;;;14.15;46.55
84767;BME280;74995;49.824;10.994;2023-12-28T05:58:18;98986.81;;;14.14;46.68
84767;BME280;74995;49.824;10.994;2023-12-28T06:00:43;98987.63;;;14.14;46.93
84767;BME280;74995;49.824;10.994;2023-12-28T06:03:09;98979.88;;;14.13;47.00
84767;BME280;74995;49.824;10.994;2023-12-28T06:05:34;98980.69;;;14.13;47.10
84767;BME280;74995;49.824;10.994;2023-12-28T06:07:59;98970.00;;;14.15;46.91
84767;BME280;74995;49.824;10.994;2023-12-28T06:10:24;98989.31;;;14.15;46.89
84767;BME280;74995;49.824;10.994;2023-12-28T06:12:50;98996.25;;;14.16;47.12
84767;BME280;74995;49.824;10.994;2023-12-28T06:15:15;98999.56;;;14.18;46.82
84767;BME280;74995;49.824;10.994;2023-12-28T06:17:41;99003.47;;;14.24;46.87
84767;BME280;74995;49.824;10.994;2023-12-28T06:20:06;99006.09;;;14.24;46.79
84767;BME280;74995;49.824;10.994;2023-12-28T06:22:33;99000.97;;;14.22;46.60
84767;BME280;74995;49.824;10.994;2023-12-28T06:24:58;98981.66;;;14.22;46.60
84767;BME280;74995;49.824;10.994;2023-12-28T06:27:24;98984.31;;;14.22;46.94
84767;BME280;74995;49.824;10.994;2023-12-28T06:29:49;99001.22;;;14.19;46.62
84767;BME280;74995;49.824;10.994;2023-12-28T06:32:15;98999.03;;;14.15;46.84
84767;BME280;74995;49.824;10.994;2023-12-28T06:34:40;99004.56;;;14.21;46.65
84767;BME280;74995;49.824;10.994;2023-12-28T06:37:05;99007.63;;;14.26;46.52
84767;BME280;74995;49.824;10.994;2023-12-28T06:39:30;99004.16;;;14.26;46.51
84767;BME280;74995;49.824;10.994;2023-12-28T06:41:56;99007.63;;;14.26;46.49
84767;BME280;74995;49.824;10.994;2023-12-28T06:44:21;98998.63;;;14.29;46.48
84767;BME280;74995;49.824;10.994;2023-12-28T06:46:46;99005.69;;;14.28;46.46
84767;BME280;74995;49.824;10.994;2023-12-28T06:49:11;99017.34;;;14.26;46.33
84767;BME280;74995;49.824;10.994;2023-12-28T06:51:37;99013.03;;;14.25;46.51
84767;BME280;74995;49.824;10.994;2023-12-28T06:54:02;99028.88;;;14.25;46.96
84767;BME280;74995;49.824;10.994;2023-12-28T06:56:27;99025.84;;;14.29;46.35
84767;BME280;74995;49.824;10.994;2023-12-28T06:58:53;99027.75;;;14.27;46.17
84767;BME280;74995;49.824;10.994;2023-12-28T07:01:18;99027.91;;;14.26;46.58
84767;BME280;74995;49.824;10.994;2023-12-28T07:03:44;99042.06;;;14.25;46.55
84767;BME280;74995;49.824;10.994;2023-12-28T07:06:09;99035.94;;;14.24;46.79
84767;BME280;74995;49.824;10.994;2023-12-28T07:08:34;99030.53;;;14.26;46.83
84767;BME280;74995;49.824;10.994;2023-12-28T07:11:01;99038.88;;;14.31;46.77
84767;BME280;74995;49.824;10.994;2023-12-28T07:13:26;99032.63;;;14.32;46.81
84767;BME280;74995;49.824;10.994;2023-12-28T07:15:51;99030.56;;;14.36;46.72
84767;BME280;74995;49.824;10.994;2023-12-28T07:18:17;99029.72;;;14.35;46.60
84767;BME280;74995;49.824;10.994;2023-12-28T07:20:42;99024.59;;;14.33;46.77
84767;BME280;74995;49.824;10.994;2023-12-28T07:23:07;99022.53;;;14.37;46.75
84767;BME280;74995;49.824;10.994;2023-12-28T07:25:34;99019.19;;;14.35;46.76
84767;BME280;74995;49.824;10.994;2023-12-28T07:27:59;99020.97;;;14.34;46.87
84767;BME280;74995;49.824;10.994;2023-12-28T07:30:24;99023.22;;;14.39;46.79
84767;BME280;74995;49.824;10.994;2023-12-28T07:32:49;99026.13;;;14.36;46.51
84767;BME280;74995;49.824;10.994;2023-12-28T07:35:15;99027.09;;;14.35;46.91
84767;BME280;74995;49.824;10.994;2023-12-28T07:37:40;99034.31;;;14.33;47.04
84767;BME280;74995;49.824;10.994;2023-12-28T07:40:06;99037.91;;;14.32;46.56
84767;BME280;74995;49.824;10.994;2023-12-28T07:42:31;99036.25;;;14.31;46.71
84767;BME280;74995;49.824;10.994;2023-12-28T07:44:56;99034.44;;;14.31;46.88
84767;BME280;74995;49.824;10.994;2023-12-28T07:47:22;99040.16;;;14.37;46.74
84767;BME280;74995;49.824;10.994;2023-12-28T07:49:47;99042.66;;;14.38;46.89
84767;BME280;74995;49.824;10.994;2023-12-28T07:52:12;99039.75;;;14.41;46.83
84767;BME280;74995;49.824;10.994;2023-12-28T07:54:37;99035.31;;;14.42;46.69
84767;BME280;74995;49.824;10.994;2023-12-28T07:57:03;99028.94;;;14.44;46.74
84767;BME280;74995;49.824;10.994;2023-12-28T07:59:28;99034.34;;;14.43;46.68
84767;BME280;74995;49.824;10.994;2023-12-28T08:01:53;99046.84;;;14.41;46.79
84767;BME280;74995;49.824;10.994;2023-12-28T08:04:19;99044.75;;;14.44;46.71
84767;BME280;74995;49.824;10.994;2023-12-28T08:06:44;99047.53;;;14.43;46.84
84767;BME280;74995;49.824;10.994;2023-12-28T08:09:09;99051.56;;;14.47;46.51
84767;BME280;74995;49.824;10.994;2023-12-28T08:11:35;99052.66;;;14.44;46.64
84767;BME280;74995;49.824;10.994;2023-12-28T08:14:00;99057.25;;;14.42;46.85
84767;BME280;74995;49.824;10.994;2023-12-28T08:16:25;99057.81;;;14.46;47.29
84767;BME280;74995;49.824;10.994;2023-12-28T08:18:51;99069.19;;;14.46;46.76
84767;BME280;74995;49.824;10.994;2023-12-28T08:21:16;99059.34;;;14.48;46.72
84767;BME280;74995;49.824;10.994;2023-12-28T08:23:41;99066.56;;;14.46;46.77
84767;BME280;74995;49.824;10.994;2023-12-28T08:26:07;99060.44;;;14.46;46.73
84767;BME280;74995;49.824;10.994;2023-12-28T08:28:32;99067.53;;;14.45;46.70
84767;BME280;74995;49.824;10.994;2023-12-28T08:30:58;99073.06;;;14.42;46.87
84767;BME280;74995;49.824;10.994;2023-12-28T08:33:23;99082.94;;;14.40;46.92
84767;BME280;74995;49.824;10.994;2023-12-28T08:35:48;99085.31;;;14.43;46.70
84767;BME280;74995;49.824;10.994;2023-12-28T08:38:13;99089.06;;;14.41;46.73
84767;BME280;74995;49.824;10.994;2023-12-28T08:40:39;99082.22;;;14.38;46.96
84767;BME280;74995;49.824;10.994;2023-12-28T08:43:04;99078.06;;;14.36;46.80
84767;BME280;74995;49.824;10.994;2023-12-28T08:45:29;99072.91;;;14.34;47.15
84767;BME280;74995;49.824;10.994;2023-12-28T08:47:54;99068.47;;;14.34;47.01
84767;BME280;74995;49.824;10.994;2023-12-28T08:50:20;99069.75;;;14.40;46.85
84767;BME280;74995;49.824;10.994;2023-12-28T08:52:45;99072.38;;;14.40;46.84
84767;BME280;74995;49.824;10.994;2023-12-28T08:55:10;99083.50;;;14.44;46.71
84767;BME280;74995;49.824;10.994;2023-12-28T08:57:35;99078.34;;;14.42;46.89
84767;BME280;74995;49.824;10.994;2023-12-28T09:00:01;99077.66;;;14.40;47.03
84767;BME280;74995;49.824;10.994;2023-12-28T09:02:28;99062.69;;;14.41;47.14
84767;BME280;74995;49.824;10.994;2023-12-28T09:04:53;99066.84;;;14.43;46.98
84767;BME280;74995;49.824;10.994;2023-12-28T09:07:19;99070.03;;;14.47;46.85
84767;BME280;74995;49.824;10.994;2023-12-28T09:09:44;99068.50;;;14.44;46.99
84767;BME280;74995;49.824;10.994;2023-12-28T09:12:10;99073.91;;;14.43;47.03
84767;BME280;74995;49.824;10.994;2023-12-28T09:14:35;99066.56;;;14.46;46.95
84767;BME280;74995;49.824;10.994;2023-12-28T09:17:01;99070.16;;;14.45;47.05
84767;BME280;74995;49.824;10.994;2023-12-28T09:19:26;99064.75;;;14.47;47.04
84767;BME280;74995;49.824;10.994;2023-12-28T09:21:51;99064.91;;;14.45;47.26
84767;BME280;74995;49.824;10.994;2023-12-28T09:24:16;99076.69;;;14.41;47.26
84767;BME280;74995;49.824;10.994;2023-12-28T09:26:43;99099.63;;;14.41;47.55
84767;BME280;74995;49.824;10.994;2023-12-28T09:29:09;99094.59;;;14.38;47.39
84767;BME280;74995;49.824;10.994;2023-12-28T09:31:34;99104.31;;;14.37;47.54
84767;BME280;74995;49.824;10.994;2023-12-28T09:34:00;99101.66;;;14.37;47.61
84767;BME280;74995;49.824;10.994;2023-12-28T09:36:25;99097.34;;;14.36;47.68
84767;BME280;74995;49.824;10.994;2023-12-28T09:38:50;99091.13;;;14.37;47.50
84767;BME280;74995;49.824;10.994;2023-12-28T09:41:16;99090.72;;;14.42;47.47
84767;BME280;74995;49.824;10.994;2023-12-28T09:43:54;99094.06;;;14.44;47.50
84767;BME280;74995;49.824;10.994;2023-12-28T09:46:20;99087.38;;;14.40;47.50
84767;BME280;74995;49.824;10.994;2023-12-28T09:48:45;99074.19;;;14.40;47.56
84767;BME280;74995;49.824;10.994;2023-12-28T09:51:10;99069.03;;;14.38;47.56
84767;BME280;74995;49.824;10.994;2023-12-28T09:53:36;99081.41;;;14.38;47.75
84767;BME280;74995;49.824;10.994;2023-12-28T09:56:02;99083.91;;;14.39;47.65
84767;BME280;74995;49.824;10.994;2023-12-28T09:58:28;99085.16;;;14.45;47.48
84767;BME280;74995;49.824;10.994;2023-12-28T10:00:54;99086.28;;;14.42;47.71
84767;BME280;74995;49.824;10.994;2023-12-28T10:03:20;99091.53;;;14.42;47.76
84767;BME280;74995;49.824;10.994;2023-12-28T10:05:46;99085.75;;;14.48;47.72
84767;BME280;74995;49.824;10.994;2023-12-28T10:08:12;99075.31;;;14.47;47.92
84767;BME280;74995;49.824;10.994;2023-12-28T10:10:38;99062.69;;;14.41;47.90
84767;BME280;74995;49.824;10.994;2023-12-28T10:13:09;99071.41;;;14.41;48.28
84767;BME280;74995;49.824;10.994;2023-12-28T10:15:38;99067.09;;;14.40;47.86
84767;BME280;74995;49.824;10.994;2023-12-28T10:18:04;99061.81;;;14.40;48.22
84767;BME280;74995;49.824;10.994;2023-12-28T10:20:31;99067.97;;;14.41;48.57
84767;BME280;74995;49.824;10.994;2023-12-28T10:22:57;99056.53;;;14.40;48.67
84767;BME280;74995;49.824;10.994;2023-12-28T10:25:23;99051.97;;;14.42;48.75
84767;BME280;74995;49.824;10.994;2023-12-28T10:27:52;99069.34;;;14.45;48.67
84767;BME280;74995;49.824;10.994;2023-12-28T10:30:19;99058.25;;;14.51;48.44
84767;BME280;74995;49.824;10.994;2023-12-28T10:32:45;99059.06;;;14.51;48.50
84767;BME280;74995;49.824;10.994;2023-12-28T10:35:10;99057.97;;;14.54;48.31
84767;BME280;74995;49.824;10.994;2023-12-28T10:37:39;99048.81;;;14.58;48.28
84767;BME280;74995;49.824;10.994;2023-12-28T10:40:05;99053.25;;;14.57;48.32
84767;BME280;74995;49.824;10.994;2023-12-28T10:42:34;99047.28;;;14.55;48.30
84767;BME280;74995;49.824;10.994;2023-12-28T10:45:05;99055.19;;;14.55;48.30
84767;BME280;74995;49.824;10.994;2023-12-28T10:47:37;99044.78;;;14.54;48.53
84767;BME280;74995;49.824;10.994;2023-12-28T10:50:04;99043.25;;;14.51;48.61
84767;BME280;74995;49.824;10.994;2023-12-28T10:52:31;99045.63;;;14.54;48.78
84767;BME280;74995;49.824;10.994;2023-12-28T10:58:14;99045.47;;;14.56;49.62
84767;BME280;74995;49.824;10.994;2023-12-28T11:00:43;99040.75;;;14.59;50.01
84767;BME280;74995;49.824;10.994;2023-12-28T11:03:11;99049.38;;;14.61;50.13
84767;BME280;74995;49.824;10.994;2023-12-28T11:05:37;99047.44;;;14.63;50.25
84767;BME280;74995;49.824;10.994;2023-12-28T11:08:04;99042.81;;;14.65;50.46
84767;BME280;74995;49.824;10.994;2023-12-28T11:10:32;99039.22;;;14.66;50.38
84767;BME280;74995;49.824;10.994;2023-12-28T11:12:58;99038.94;;;14.70;50.76
84767;BME280;74995;49.824;10.994;2023-12-28T11:15:26;99036.03;;;14.73;50.76
84767;BME280;74995;49.824;10.994;2023-12-28T11:17:52;99032.28;;;14.75;50.68
84767;BME280;74995;49.824;10.994;2023-12-28T11:20:17;99039.94;;;14.78;50.49
84767;BME280;74995;49.824;10.994;2023-12-28T11:22:42;99030.34;;;14.87;50.43
84767;BME280;74995;49.824;10.994;2023-12-28T11:25:16;99027.72;;;14.87;50.64
84767;BME280;74995;49.824;10.994;2023-12-28T11:27:42;99025.22;;;14.85;50.70
84767;BME280;74995;49.824;10.994;2023-12-28T11:30:07;99029.22;;;14.89;50.70
84767;BME280;74995;49.824;10.994;2023-12-28T11:32:42;99029.63;;;14.94;50.34
84767;BME280;74995;49.824;10.994;2023-12-28T11:35:08;99025.19;;;14.95;50.34
84767;BME280;74995;49.824;10.994;2023-12-28T11:37:38;99019.06;;;14.94;50.49
84767;BME280;74995;49.824;10.994;2023-12-28T11:40:13;99018.38;;;14.92;50.47
84767;BME280;74995;49.824;10.994;2023-12-28T11:43:00;99027.25;;;14.91;50.36
84767;BME280;74995;49.824;10.994;2023-12-28T11:45:25;99023.50;;;14.94;50.39
84767;BME280;74995;49.824;10.994;2023-12-28T11:47:59;99028.94;;;14.92;50.37
84767;BME280;74995;49.824;10.994;2023-12-28T11:50:26;99022.81;;;14.92;50.26
84767;BME280;74995;49.824;10.994;2023-12-28T11:52:51;99019.22;;;14.93;50.14
84767;BME280;74995;49.824;10.994;2023-12-28T11:55:23;99023.09;;;14.98;50.04
84767;BME280;74995;49.824;10.994;2023-12-28T11:57:51;99020.59;;;14.97;50.48
84767;BME280;74995;49.824;10.994;2023-12-28T12:00:17;99025.03;;;14.96;50.74
84767;BME280;74995;49.824;10.994;2023-12-28T12:02:43;99017.97;;;14.97;50.57
84767;BME280;74995;49.824;10.994;2023-12-28T12:05:09;99017.41;;;15.03;50.42
84767;BME280;74995;49.824;10.994;2023-12-28T12:07:35;99015.19;;;14.98;50.47
84767;BME280;74995;49.824;10.994;2023-12-28T12:10:01;99013.22;;;15.00;50.48
84767;BME280;74995;49.824;10.994;2023-12-28T12:12:26;99001.97;;;14.98;50.51
84767;BME280;74995;49.824;10.994;2023-12-28T12:14:52;99009.75;;;15.00;50.30
84767;BME280;74995;49.824;10.994;2023-12-28T12:17:17;99011.84;;;15.06;50.24
84767;BME280;74995;49.824;10.994;2023-12-28T12:19:44;99009.34;;;15.05;50.30
84767;BME280;74995;49.824;10.994;2023-12-28T12:22:10;99002.38;;;15.04;50.42
84767;BME280;74995;49.824;10.994;2023-12-28T12:24:35;99004.19;;;15.03;50.42
84767;BME280;74995;49.824;10.994;2023-12-28T12:27:01;99007.25;;;15.08;50.20
84767;BME280;74995;49.824;10.994;2023-12-28T12:29:29;99012.66;;;15.07;50.28
84767;BME280;74995;49.824;10.994;2023-12-28T12:31:55;99006.69;;;15.05;50.36
84767;BME280;74995;49.824;10.994;2023-12-28T12:34:21;98999.75;;;15.04;50.37
84767;BME280;74995;49.824;10.994;2023-12-28T12:36:46;99003.22;;;15.04;50.20
84767;BME280;74995;49.824;10.994;2023-12-28T12:39:11;98988.75;;;15.08;50.22
84767;BME280;74995;49.824;10.994;2023-12-28T12:41:37;98988.91;;;15.07;50.15
84767;BME280;74995;49.824;10.994;2023-12-28T12:44:03;99008.22;;;15.07;50.26
84767;BME280;74995;49.824;10.994;2023-12-28T12:46:30;99009.19;;;15.06;50.28
84767;BME280;74995;49.824;10.994;2023-12-28T12:51:21;98998.63;;;15.06;50.34